sensor_id;sensor_type;location;lat;lon;timestamp;P1;durP1;ratioP1;P2;durP2;ratioP2
35114;SDS011;21292;52.416;13.046;2024-03-06T00:01:06;51.10;;;24.95;;
35114;SDS011;21292;52.416;13.046;2024-03-06T00:03:35;53.30;;;26.15;;
35114;SDS011;21292;52.416;13.046;2024-03-06T00:06:06;56.65;;;24.75;;
35114;SDS011;21292;52.416;13.046;2024-03-06T00:08:37;50.45;;;24.00;;
35114;SDS011;21292;52.416;13.046;2024-03-06T00:11:05;54.53;;;25.45;;
35114;SDS011;21292;52.416;13.046;2024-03-06T00:13:33;55.22;;;26.08;;
35114;SDS011;21292;52.416;13.046;2024-03-06T00:16:02;56.85;;;26.52;;
35114;SDS011;21292;52.416;13.046;2024-03-06T00:18:30;55.38;;;25.45;;
35114;SDS011;21292;52.416;13.046;2024-03-06T00:20:58;60.40;;;27.27;;
35114;SDS011;21292;52.416;13.046;2024-03-06T00:23:28;62.08;;;27.45;;
35114;SDS011;21292;52.416;13.046;2024-03-06T00:25:57;67.55;;;29.15;;
35114;SDS011;21292;52.416;13.046;2024-03-06T00:28:25;58.28;;;26.95;;
35114;SDS011;21292;52.416;13.046;2024-03-06T00:30:54;54.53;;;26.30;;
35114;SDS011;21292;52.416;13.046;2024-03-06T00:33:23;66.50;;;28.08;;
35114;SDS011;21292;52.416;13.046;2024-03-06T00:35:52;57.15;;;27.00;;
35114;SDS011;21292;52.416;13.046;2024-03-06T00:38:20;67.18;;;28.17;;
35114;SDS011;21292;52.416;13.046;2024-03-06T00:40:49;57.97;;;27.60;;
35114;SDS011;21292;52.416;13.046;2024-03-06T00:43:18;69.07;;;27.23;;
35114;SDS011;21292;52.416;13.046;2024-03-06T00:45:47;63.45;;;28.02;;
35114;SDS011;21292;52.416;13.046;2024-03-06T00:48:15;64.65;;;28.45;;
35114;SDS011;21292;52.416;13.046;2024-03-06T00:50:43;68.28;;;30.20;;
35114;SDS011;21292;52.416;13.046;2024-03-06T00:53:11;66.95;;;29.75;;
35114;SDS011;21292;52.416;13.046;2024-03-06T00:55:39;64.78;;;28.83;;
35114;SDS011;21292;52.416;13.046;2024-03-06T00:58:10;60.55;;;26.65;;
35114;SDS011;21292;52.416;13.046;2024-03-06T01:00:38;64.45;;;26.20;;
35114;SDS011;21292;52.416;13.046;2024-03-06T01:03:06;57.42;;;25.15;;
35114;SDS011;21292;52.416;13.046;2024-03-06T01:05:35;61.05;;;27.42;;
35114;SDS011;21292;52.416;13.046;2024-03-06T01:08:03;56.97;;;27.23;;
35114;SDS011;21292;52.416;13.046;2024-03-06T01:10:32;62.97;;;27.23;;
35114;SDS011;21292;52.416;13.046;2024-03-06T01:13:00;64.55;;;27.20;;
35114;SDS011;21292;52.416;13.046;2024-03-06T01:15:30;64.55;;;29.98;;
35114;SDS011;21292;52.416;13.046;2024-03-06T01:17:58;64.50;;;27.38;;
35114;SDS011;21292;52.416;13.046;2024-03-06T01:20:26;63.83;;;29.42;;
35114;SDS011;21292;52.416;13.046;2024-03-06T01:22:55;65.78;;;28.30;;
35114;SDS011;21292;52.416;13.046;2024-03-06T01:25:23;58.97;;;27.00;;
35114;SDS011;21292;52.416;13.046;2024-03-06T01:27:51;62.35;;;27.00;;
35114;SDS011;21292;52.416;13.046;2024-03-06T01:30:20;65.40;;;27.33;;
35114;SDS011;21292;52.416;13.046;2024-03-06T01:32:49;68.88;;;29.58;;
35114;SDS011;21292;52.416;13.046;2024-03-06T01:35:19;68.40;;;28.30;;
35114;SDS011;21292;52.416;13.046;2024-03-06T01:37:48;64.40;;;29.25;;
35114;SDS011;21292;52.416;13.046;2024-03-06T01:40:16;73.15;;;31.42;;
35114;SDS011;21292;52.416;13.046;2024-03-06T01:42:46;75.20;;;30.00;;
35114;SDS011;21292;52.416;13.046;2024-03-06T01:45:15;66.90;;;29.90;;
35114;SDS011;21292;52.416;13.046;2024-03-06T01:47:43;60.60;;;28.65;;
35114;SDS011;21292;52.416;13.046;2024-03-06T01:50:13;67.40;;;28.77;;
35114;SDS011;21292;52.416;13.046;2024-03-06T01:52:42;65.18;;;28.13;;
35114;SDS011;21292;52.416;13.046;2024-03-06T01:55:11;60.72;;;29.10;;
35114;SDS011;21292;52.416;13.046;2024-03-06T01:57:40;59.13;;;26.52;;
35114;SDS011;21292;52.416;13.046;2024-03-06T02:00:09;69.05;;;30.88;;
35114;SDS011;21292;52.416;13.046;2024-03-06T02:02:41;62.63;;;28.05;;
35114;SDS011;21292;52.416;13.046;2024-03-06T02:05:10;69.78;;;30.48;;
35114;SDS011;21292;52.416;13.046;2024-03-06T02:07:39;70.38;;;30.88;;
35114;SDS011;21292;52.416;13.046;2024-03-06T02:10:08;71.63;;;29.05;;
35114;SDS011;21292;52.416;13.046;2024-03-06T02:12:40;61.17;;;28.85;;
35114;SDS011;21292;52.416;13.046;2024-03-06T02:15:09;62.70;;;28.88;;
35114;SDS011;21292;52.416;13.046;2024-03-06T02:17:40;68.78;;;30.27;;
35114;SDS011;21292;52.416;13.046;2024-03-06T02:20:09;70.13;;;31.33;;
35114;SDS011;21292;52.416;13.046;2024-03-06T02:22:43;62.05;;;28.58;;
35114;SDS011;21292;52.416;13.046;2024-03-06T02:25:12;70.45;;;29.83;;
35114;SDS011;21292;52.416;13.046;2024-03-06T02:27:41;65.22;;;28.98;;
35114;SDS011;21292;52.416;13.046;2024-03-06T02:30:10;69.03;;;30.05;;
35114;SDS011;21292;52.416;13.046;2024-03-06T02:32:39;63.50;;;27.88;;
35114;SDS011;21292;52.416;13.046;2024-03-06T02:35:11;63.45;;;29.02;;
35114;SDS011;21292;52.416;13.046;2024-03-06T02:37:41;55.58;;;27.17;;
35114;SDS011;21292;52.416;13.046;2024-03-06T02:40:13;67.60;;;29.95;;
35114;SDS011;21292;52.416;13.046;2024-03-06T02:42:41;65.95;;;30.50;;
35114;SDS011;21292;52.416;13.046;2024-03-06T02:45:09;65.85;;;28.27;;
35114;SDS011;21292;52.416;13.046;2024-03-06T02:47:37;67.35;;;29.38;;
35114;SDS011;21292;52.416;13.046;2024-03-06T02:50:06;64.13;;;28.65;;
35114;SDS011;21292;52.416;13.046;2024-03-06T02:52:35;62.65;;;29.88;;
35114;SDS011;21292;52.416;13.046;2024-03-06T02:55:03;59.53;;;27.10;;
35114;SDS011;21292;52.416;13.046;2024-03-06T02:57:34;68.05;;;29.77;;
35114;SDS011;21292;52.416;13.046;2024-03-06T03:00:03;67.43;;;30.42;;
35114;SDS011;21292;52.416;13.046;2024-03-06T03:02:31;65.20;;;28.98;;
35114;SDS011;21292;52.416;13.046;2024-03-06T03:05:00;65.35;;;28.38;;
35114;SDS011;21292;52.416;13.046;2024-03-06T03:07:30;66.93;;;28.67;;
35114;SDS011;21292;52.416;13.046;2024-03-06T03:09:58;61.88;;;27.95;;
35114;SDS011;21292;52.416;13.046;2024-03-06T03:12:27;53.70;;;25.83;;
35114;SDS011;21292;52.416;13.046;2024-03-06T03:14:57;58.78;;;27.13;;
35114;SDS011;21292;52.416;13.046;2024-03-06T03:17:25;56.15;;;27.55;;
35114;SDS011;21292;52.416;13.046;2024-03-06T03:19:53;66.03;;;27.98;;
35114;SDS011;21292;52.416;13.046;2024-03-06T03:22:21;65.32;;;27.40;;
35114;SDS011;21292;52.416;13.046;2024-03-06T03:24:49;61.63;;;26.95;;
35114;SDS011;21292;52.416;13.046;2024-03-06T03:27:18;58.70;;;27.63;;
35114;SDS011;21292;52.416;13.046;2024-03-06T03:29:46;62.45;;;28.02;;
35114;SDS011;21292;52.416;13.046;2024-03-06T03:32:16;63.65;;;27.52;;
35114;SDS011;21292;52.416;13.046;2024-03-06T03:34:44;57.40;;;27.30;;
35114;SDS011;21292;52.416;13.046;2024-03-06T03:37:14;74.47;;;28.58;;
35114;SDS011;21292;52.416;13.046;2024-03-06T03:39:43;65.90;;;29.42;;
35114;SDS011;21292;52.416;13.046;2024-03-06T03:42:12;63.13;;;28.73;;
35114;SDS011;21292;52.416;13.046;2024-03-06T03:44:40;68.47;;;28.25;;
35114;SDS011;21292;52.416;13.046;2024-03-06T03:47:08;65.50;;;27.60;;
35114;SDS011;21292;52.416;13.046;2024-03-06T03:49:39;65.80;;;27.05;;
35114;SDS011;21292;52.416;13.046;2024-03-06T03:52:07;72.60;;;29.48;;
35114;SDS011;21292;52.416;13.046;2024-03-06T03:54:35;64.15;;;29.20;;
35114;SDS011;21292;52.416;13.046;2024-03-06T03:57:03;60.83;;;26.80;;
35114;SDS011;21292;52.416;13.046;2024-03-06T03:59:33;63.47;;;29.08;;
35114;SDS011;21292;52.416;13.046;2024-03-06T04:02:02;64.15;;;28.67;;
35114;SDS011;21292;52.416;13.046;2024-03-06T04:04:31;65.63;;;28.92;;
35114;SDS011;21292;52.416;13.046;2024-03-06T04:07:02;64.65;;;28.67;;
35114;SDS011;21292;52.416;13.046;2024-03-06T04:09:31;58.15;;;26.67;;
35114;SDS011;21292;52.416;13.046;2024-03-06T04:12:02;63.55;;;30.00;;
35114;SDS011;21292;52.416;13.046;2024-03-06T04:14:31;64.05;;;28.00;;
35114;SDS011;21292;52.416;13.046;2024-03-06T04:16:59;70.35;;;29.58;;
35114;SDS011;21292;52.416;13.046;2024-03-06T04:19:30;66.38;;;29.02;;
35114;SDS011;21292;52.416;13.046;2024-03-06T04:21:59;63.50;;;27.08;;
35114;SDS011;21292;52.416;13.046;2024-03-06T04:24:29;72.38;;;30.58;;
35114;SDS011;21292;52.416;13.046;2024-03-06T04:26:57;74.22;;;30.88;;
35114;SDS011;21292;52.416;13.046;2024-03-06T04:29:26;68.78;;;29.38;;
35114;SDS011;21292;52.416;13.046;2024-03-06T04:31:54;70.85;;;28.77;;
35114;SDS011;21292;52.416;13.046;2024-03-06T04:34:23;65.22;;;29.17;;
35114;SDS011;21292;52.416;13.046;2024-03-06T04:36:51;77.40;;;29.83;;
35114;SDS011;21292;52.416;13.046;2024-03-06T04:39:19;69.10;;;30.08;;
35114;SDS011;21292;52.416;13.046;2024-03-06T04:41:49;66.22;;;29.67;;
35114;SDS011;21292;52.416;13.046;2024-03-06T04:44:17;68.43;;;28.63;;
35114;SDS011;21292;52.416;13.046;2024-03-06T04:46:45;66.68;;;30.35;;
35114;SDS011;21292;52.416;13.046;2024-03-06T04:49:13;68.03;;;29.10;;
35114;SDS011;21292;52.416;13.046;2024-03-06T04:51:42;84.22;;;31.45;;
35114;SDS011;21292;52.416;13.046;2024-03-06T04:54:10;72.35;;;30.98;;
35114;SDS011;21292;52.416;13.046;2024-03-06T04:56:38;76.78;;;31.88;;
35114;SDS011;21292;52.416;13.046;2024-03-06T04:59:08;68.68;;;30.98;;
35114;SDS011;21292;52.416;13.046;2024-03-06T05:01:36;77.80;;;31.50;;
35114;SDS011;21292;52.416;13.046;2024-03-06T05:04:04;71.80;;;30.17;;
35114;SDS011;21292;52.416;13.046;2024-03-06T05:06:51;78.88;;;30.45;;
35114;SDS011;21292;52.416;13.046;2024-03-06T05:09:36;78.10;;;30.67;;
35114;SDS011;21292;52.416;13.046;2024-03-06T05:12:22;78.35;;;30.92;;
35114;SDS011;21292;52.416;13.046;2024-03-06T05:15:09;71.97;;;30.17;;
35114;SDS011;21292;52.416;13.046;2024-03-06T05:17:55;72.78;;;29.48;;
35114;SDS011;21292;52.416;13.046;2024-03-06T05:20:41;64.40;;;30.10;;
35114;SDS011;21292;52.416;13.046;2024-03-06T05:23:27;70.80;;;29.75;;
35114;SDS011;21292;52.416;13.046;2024-03-06T05:26:13;350.65;;;152.48;;
35114;SDS011;21292;52.416;13.046;2024-03-06T05:28:58;151.43;;;68.53;;
35114;SDS011;21292;52.416;13.046;2024-03-06T05:31:46;91.85;;;39.08;;
35114;SDS011;21292;52.416;13.046;2024-03-06T05:34:32;69.50;;;30.58;;
35114;SDS011;21292;52.416;13.046;2024-03-06T05:37:17;75.25;;;32.13;;
35114;SDS011;21292;52.416;13.046;2024-03-06T05:40:04;76.65;;;31.42;;
35114;SDS011;21292;52.416;13.046;2024-03-06T05:42:51;75.18;;;29.63;;
35114;SDS011;21292;52.416;13.046;2024-03-06T05:45:36;73.68;;;30.38;;
35114;SDS011;21292;52.416;13.046;2024-03-06T05:48:24;75.75;;;30.45;;
35114;SDS011;21292;52.416;13.046;2024-03-06T05:51:10;80.70;;;32.75;;
35114;SDS011;21292;52.416;13.046;2024-03-06T05:53:56;82.70;;;32.13;;
35114;SDS011;21292;52.416;13.046;2024-03-06T05:56:41;84.85;;;33.17;;
35114;SDS011;21292;52.416;13.046;2024-03-06T05:59:27;81.57;;;33.53;;
35114;SDS011;21292;52.416;13.046;2024-03-06T06:01:55;78.20;;;32.92;;
35114;SDS011;21292;52.416;13.046;2024-03-06T06:04:25;84.53;;;34.05;;
35114;SDS011;21292;52.416;13.046;2024-03-06T06:06:53;89.13;;;34.20;;
35114;SDS011;21292;52.416;13.046;2024-03-06T06:09:21;100.80;;;37.33;;
35114;SDS011;21292;52.416;13.046;2024-03-06T06:11:49;93.78;;;36.78;;
35114;SDS011;21292;52.416;13.046;2024-03-06T06:14:18;87.95;;;35.63;;
35114;SDS011;21292;52.416;13.046;2024-03-06T06:16:46;89.57;;;37.55;;
35114;SDS011;21292;52.416;13.046;2024-03-06T06:19:14;100.50;;;35.30;;
35114;SDS011;21292;52.416;13.046;2024-03-06T06:21:44;110.15;;;40.38;;
35114;SDS011;21292;52.416;13.046;2024-03-06T06:24:14;99.75;;;38.35;;
35114;SDS011;21292;52.416;13.046;2024-03-06T06:26:42;116.18;;;41.80;;
35114;SDS011;21292;52.416;13.046;2024-03-06T06:29:11;102.72;;;40.40;;
35114;SDS011;21292;52.416;13.046;2024-03-06T06:31:41;105.28;;;40.92;;
35114;SDS011;21292;52.416;13.046;2024-03-06T06:34:12;108.20;;;39.45;;
35114;SDS011;21292;52.416;13.046;2024-03-06T06:36:46;113.60;;;41.40;;
35114;SDS011;21292;52.416;13.046;2024-03-06T06:39:14;109.97;;;42.60;;
35114;SDS011;21292;52.416;13.046;2024-03-06T06:41:43;114.30;;;43.10;;
35114;SDS011;21292;52.416;13.046;2024-03-06T06:44:13;114.93;;;43.78;;
35114;SDS011;21292;52.416;13.046;2024-03-06T06:46:42;125.03;;;44.72;;
35114;SDS011;21292;52.416;13.046;2024-03-06T06:49:13;120.45;;;44.55;;
35114;SDS011;21292;52.416;13.046;2024-03-06T06:51:42;109.28;;;42.22;;
35114;SDS011;21292;52.416;13.046;2024-03-06T06:54:14;119.20;;;43.15;;
35114;SDS011;21292;52.416;13.046;2024-03-06T06:56:46;124.47;;;44.05;;
35114;SDS011;21292;52.416;13.046;2024-03-06T06:59:17;114.57;;;42.25;;
35114;SDS011;21292;52.416;13.046;2024-03-06T07:01:56;111.15;;;43.75;;
35114;SDS011;21292;52.416;13.046;2024-03-06T07:04:42;105.38;;;41.28;;
35114;SDS011;21292;52.416;13.046;2024-03-06T07:07:52;97.32;;;40.28;;
35114;SDS011;21292;52.416;13.046;2024-03-06T07:17:35;80.10;;;35.67;;
35114;SDS011;21292;52.416;13.046;2024-03-06T07:20:42;73.65;;;35.55;;
35114;SDS011;21292;52.416;13.046;2024-03-06T07:23:45;66.03;;;33.00;;
35114;SDS011;21292;52.416;13.046;2024-03-06T07:26:51;66.43;;;29.98;;
35114;SDS011;21292;52.416;13.046;2024-03-06T07:32:51;52.15;;;26.52;;
35114;SDS011;21292;52.416;13.046;2024-03-06T07:36:26;49.83;;;26.23;;
35114;SDS011;21292;52.416;13.046;2024-03-06T07:38:54;61.15;;;28.23;;
35114;SDS011;21292;52.416;13.046;2024-03-06T07:41:22;46.03;;;25.92;;
35114;SDS011;21292;52.416;13.046;2024-03-06T07:43:51;46.45;;;24.67;;
35114;SDS011;21292;52.416;13.046;2024-03-06T07:46:20;39.10;;;23.05;;
35114;SDS011;21292;52.416;13.046;2024-03-06T07:48:49;47.30;;;24.10;;
35114;SDS011;21292;52.416;13.046;2024-03-06T07:51:19;43.65;;;23.35;;
35114;SDS011;21292;52.416;13.046;2024-03-06T07:53:48;49.22;;;25.33;;
35114;SDS011;21292;52.416;13.046;2024-03-06T07:56:17;39.45;;;23.67;;
35114;SDS011;21292;52.416;13.046;2024-03-06T07:58:45;43.13;;;23.70;;
35114;SDS011;21292;52.416;13.046;2024-03-06T08:01:14;41.70;;;22.23;;
35114;SDS011;21292;52.416;13.046;2024-03-06T08:03:43;46.92;;;24.40;;
35114;SDS011;21292;52.416;13.046;2024-03-06T08:06:12;45.70;;;24.25;;
35114;SDS011;21292;52.416;13.046;2024-03-06T08:08:42;44.10;;;24.48;;
35114;SDS011;21292;52.416;13.046;2024-03-06T08:11:12;44.78;;;22.67;;
35114;SDS011;21292;52.416;13.046;2024-03-06T08:13:40;43.17;;;24.15;;
35114;SDS011;21292;52.416;13.046;2024-03-06T08:16:08;37.83;;;21.75;;
35114;SDS011;21292;52.416;13.046;2024-03-06T08:18:36;35.75;;;21.95;;
35114;SDS011;21292;52.416;13.046;2024-03-06T08:21:06;41.85;;;20.27;;
35114;SDS011;21292;52.416;13.046;2024-03-06T08:23:34;35.50;;;21.60;;
35114;SDS011;21292;52.416;13.046;2024-03-06T08:26:02;35.83;;;21.23;;
35114;SDS011;21292;52.416;13.046;2024-03-06T08:28:31;42.92;;;20.23;;
35114;SDS011;21292;52.416;13.046;2024-03-06T08:30:59;38.95;;;21.00;;
35114;SDS011;21292;52.416;13.046;2024-03-06T08:33:27;30.73;;;18.42;;
35114;SDS011;21292;52.416;13.046;2024-03-06T08:35:56;36.90;;;19.58;;
35114;SDS011;21292;52.416;13.046;2024-03-06T08:38:26;35.20;;;19.38;;
35114;SDS011;21292;52.416;13.046;2024-03-06T08:40:56;35.97;;;19.88;;
35114;SDS011;21292;52.416;13.046;2024-03-06T08:43:24;35.97;;;20.02;;
35114;SDS011;21292;52.416;13.046;2024-03-06T08:45:53;31.45;;;19.42;;
35114;SDS011;21292;52.416;13.046;2024-03-06T08:48:21;34.53;;;20.35;;
35114;SDS011;21292;52.416;13.046;2024-03-06T08:50:49;33.20;;;20.33;;
35114;SDS011;21292;52.416;13.046;2024-03-06T08:53:18;34.50;;;20.58;;
35114;SDS011;21292;52.416;13.046;2024-03-06T08:55:47;30.60;;;19.38;;
35114;SDS011;21292;52.416;13.046;2024-03-06T08:58:16;34.55;;;19.48;;
35114;SDS011;21292;52.416;13.046;2024-03-06T09:00:47;31.88;;;18.90;;
35114;SDS011;21292;52.416;13.046;2024-03-06T09:03:16;29.92;;;19.33;;
35114;SDS011;21292;52.416;13.046;2024-03-06T09:05:44;37.35;;;18.00;;
35114;SDS011;21292;52.416;13.046;2024-03-06T09:08:12;32.80;;;18.70;;
35114;SDS011;21292;52.416;13.046;2024-03-06T09:10:41;33.60;;;18.83;;
35114;SDS011;21292;52.416;13.046;2024-03-06T09:13:10;32.45;;;18.38;;
35114;SDS011;21292;52.416;13.046;2024-03-06T09:15:38;29.48;;;18.40;;
35114;SDS011;21292;52.416;13.046;2024-03-06T09:18:07;27.42;;;17.15;;
35114;SDS011;21292;52.416;13.046;2024-03-06T09:20:35;28.60;;;16.80;;
35114;SDS011;21292;52.416;13.046;2024-03-06T09:23:04;30.63;;;17.80;;
35114;SDS011;21292;52.416;13.046;2024-03-06T09:25:32;31.08;;;17.88;;
35114;SDS011;21292;52.416;13.046;2024-03-06T09:28:00;33.72;;;18.90;;
35114;SDS011;21292;52.416;13.046;2024-03-06T09:30:32;28.40;;;16.95;;
35114;SDS011;21292;52.416;13.046;2024-03-06T09:33:01;28.90;;;16.77;;
35114;SDS011;21292;52.416;13.046;2024-03-06T09:35:29;28.42;;;17.25;;
35114;SDS011;21292;52.416;13.046;2024-03-06T09:38:00;27.17;;;15.18;;
35114;SDS011;21292;52.416;13.046;2024-03-06T09:40:29;29.30;;;16.30;;
35114;SDS011;21292;52.416;13.046;2024-03-06T09:42:57;26.55;;;14.82;;
35114;SDS011;21292;52.416;13.046;2024-03-06T09:45:26;22.67;;;14.95;;
35114;SDS011;21292;52.416;13.046;2024-03-06T09:47:56;23.77;;;15.27;;
35114;SDS011;21292;52.416;13.046;2024-03-06T09:50:25;28.33;;;15.20;;
35114;SDS011;21292;52.416;13.046;2024-03-06T09:52:54;26.10;;;15.10;;
35114;SDS011;21292;52.416;13.046;2024-03-06T09:55:24;23.60;;;14.88;;
35114;SDS011;21292;52.416;13.046;2024-03-06T09:57:53;25.20;;;14.63;;
35114;SDS011;21292;52.416;13.046;2024-03-06T10:00:21;22.83;;;13.27;;
35114;SDS011;21292;52.416;13.046;2024-03-06T10:02:57;20.60;;;12.20;;
35114;SDS011;21292;52.416;13.046;2024-03-06T10:05:27;23.42;;;13.07;;
35114;SDS011;21292;52.416;13.046;2024-03-06T10:07:57;18.92;;;11.88;;
35114;SDS011;21292;52.416;13.046;2024-03-06T10:10:27;18.65;;;11.55;;
35114;SDS011;21292;52.416;13.046;2024-03-06T10:12:55;20.85;;;12.32;;
35114;SDS011;21292;52.416;13.046;2024-03-06T10:15:24;23.27;;;12.75;;
35114;SDS011;21292;52.416;13.046;2024-03-06T10:18:00;22.33;;;11.75;;
35114;SDS011;21292;52.416;13.046;2024-03-06T10:20:38;18.88;;;10.68;;
35114;SDS011;21292;52.416;13.046;2024-03-06T10:23:07;18.45;;;10.48;;
35114;SDS011;21292;52.416;13.046;2024-03-06T10:25:36;16.10;;;10.48;;
35114;SDS011;21292;52.416;13.046;2024-03-06T10:28:05;17.85;;;12.05;;
35114;SDS011;21292;52.416;13.046;2024-03-06T10:30:35;18.02;;;10.27;;
35114;SDS011;21292;52.416;13.046;2024-03-06T10:33:11;16.98;;;10.18;;
35114;SDS011;21292;52.416;13.046;2024-03-06T10:35:42;22.92;;;10.60;;
35114;SDS011;21292;52.416;13.046;2024-03-06T10:38:11;16.80;;;9.38;;
35114;SDS011;21292;52.416;13.046;2024-03-06T10:40:41;16.88;;;9.38;;
35114;SDS011;21292;52.416;13.046;2024-03-06T10:43:10;17.95;;;9.98;;
35114;SDS011;21292;52.416;13.046;2024-03-06T10:45:48;15.50;;;9.35;;
35114;SDS011;21292;52.416;13.046;2024-03-06T10:48:19;15.52;;;9.57;;
35114;SDS011;21292;52.416;13.046;2024-03-06T10:50:49;18.42;;;11.00;;
35114;SDS011;21292;52.416;13.046;2024-03-06T10:53:18;27.65;;;15.00;;
35114;SDS011;21292;52.416;13.046;2024-03-06T10:55:50;20.33;;;12.95;;
35114;SDS011;21292;52.416;13.046;2024-03-06T10:58:19;22.65;;;12.63;;
35114;SDS011;21292;52.416;13.046;2024-03-06T11:00:48;18.45;;;10.13;;
35114;SDS011;21292;52.416;13.046;2024-03-06T11:03:16;18.48;;;10.45;;
35114;SDS011;21292;52.416;13.046;2024-03-06T11:05:46;17.65;;;10.68;;
35114;SDS011;21292;52.416;13.046;2024-03-06T11:08:18;16.80;;;9.80;;
35114;SDS011;21292;52.416;13.046;2024-03-06T11:10:47;14.23;;;9.38;;
35114;SDS011;21292;52.416;13.046;2024-03-06T11:13:20;17.02;;;10.93;;
35114;SDS011;21292;52.416;13.046;2024-03-06T11:15:50;17.55;;;10.90;;
35114;SDS011;21292;52.416;13.046;2024-03-06T11:21:30;15.63;;;10.05;;
35114;SDS011;21292;52.416;13.046;2024-03-06T11:24:14;14.38;;;9.85;;
35114;SDS011;21292;52.416;13.046;2024-03-06T11:26:48;18.17;;;9.63;;
35114;SDS011;21292;52.416;13.046;2024-03-06T11:29:29;12.85;;;8.65;;
35114;SDS011;21292;52.416;13.046;2024-03-06T11:35:29;14.85;;;9.43;;
35114;SDS011;21292;52.416;13.046;2024-03-06T11:38:02;11.60;;;8.73;;
35114;SDS011;21292;52.416;13.046;2024-03-06T11:40:42;12.70;;;8.43;;
35114;SDS011;21292;52.416;13.046;2024-03-06T11:43:22;13.98;;;7.45;;
35114;SDS011;21292;52.416;13.046;2024-03-06T11:46:11;14.95;;;6.32;;
35114;SDS011;21292;52.416;13.046;2024-03-06T11:48:39;8.35;;;5.95;;
35114;SDS011;21292;52.416;13.046;2024-03-06T11:51:09;9.95;;;6.85;;
35114;SDS011;21292;52.416;13.046;2024-03-06T11:53:39;11.25;;;7.57;;
35114;SDS011;21292;52.416;13.046;2024-03-06T11:56:11;11.98;;;7.50;;
35114;SDS011;21292;52.416;13.046;2024-03-06T11:58:41;10.75;;;7.90;;
35114;SDS011;21292;52.416;13.046;2024-03-06T12:01:11;10.93;;;7.15;;
35114;SDS011;21292;52.416;13.046;2024-03-06T12:03:41;14.93;;;8.05;;
35114;SDS011;21292;52.416;13.046;2024-03-06T12:06:10;12.95;;;7.13;;
35114;SDS011;21292;52.416;13.046;2024-03-06T12:08:40;12.30;;;8.52;;
35114;SDS011;21292;52.416;13.046;2024-03-06T12:11:08;12.55;;;8.18;;
35114;SDS011;21292;52.416;13.046;2024-03-06T12:13:36;16.25;;;9.02;;
35114;SDS011;21292;52.416;13.046;2024-03-06T12:16:05;14.98;;;9.25;;
35114;SDS011;21292;52.416;13.046;2024-03-06T12:18:34;15.98;;;9.75;;
35114;SDS011;21292;52.416;13.046;2024-03-06T12:21:04;13.77;;;9.45;;
35114;SDS011;21292;52.416;13.046;2024-03-06T12:23:32;14.20;;;9.35;;
35114;SDS011;21292;52.416;13.046;2024-03-06T12:26:06;16.75;;;9.25;;
35114;SDS011;21292;52.416;13.046;2024-03-06T12:28:36;14.90;;;9.68;;
35114;SDS011;21292;52.416;13.046;2024-03-06T12:31:04;12.80;;;9.57;;
35114;SDS011;21292;52.416;13.046;2024-03-06T12:33:34;13.45;;;9.25;;
35114;SDS011;21292;52.416;13.046;2024-03-06T12:36:03;16.33;;;10.10;;
35114;SDS011;21292;52.416;13.046;2024-03-06T12:38:33;18.83;;;11.40;;
35114;SDS011;21292;52.416;13.046;2024-03-06T12:41:01;20.35;;;11.23;;
35114;SDS011;21292;52.416;13.046;2024-03-06T12:43:31;18.83;;;12.38;;
35114;SDS011;21292;52.416;13.046;2024-03-06T12:46:01;17.80;;;12.23;;
35114;SDS011;21292;52.416;13.046;2024-03-06T12:48:31;19.02;;;11.38;;
35114;SDS011;21292;52.416;13.046;2024-03-06T12:51:00;20.95;;;11.20;;
35114;SDS011;21292;52.416;13.046;2024-03-06T12:56:02;20.23;;;12.15;;
35114;SDS011;21292;52.416;13.046;2024-03-06T12:58:32;20.83;;;12.75;;
35114;SDS011;21292;52.416;13.046;2024-03-06T13:01:02;20.20;;;12.02;;
35114;SDS011;21292;52.416;13.046;2024-03-06T13:03:30;17.17;;;10.70;;
35114;SDS011;21292;52.416;13.046;2024-03-06T13:05:59;14.95;;;10.65;;
35114;SDS011;21292;52.416;13.046;2024-03-06T13:08:27;16.92;;;10.70;;
35114;SDS011;21292;52.416;13.046;2024-03-06T13:10:59;20.85;;;10.60;;
35114;SDS011;21292;52.416;13.046;2024-03-06T13:13:28;18.88;;;10.73;;
35114;SDS011;21292;52.416;13.046;2024-03-06T13:15:58;19.55;;;11.05;;
35114;SDS011;21292;52.416;13.046;2024-03-06T13:18:31;17.52;;;10.65;;
35114;SDS011;21292;52.416;13.046;2024-03-06T13:21:00;14.57;;;9.48;;
35114;SDS011;21292;52.416;13.046;2024-03-06T13:23:29;11.00;;;7.28;;
35114;SDS011;21292;52.416;13.046;2024-03-06T13:25:58;10.50;;;7.10;;
35114;SDS011;21292;52.416;13.046;2024-03-06T13:28:27;18.83;;;9.38;;
35114;SDS011;21292;52.416;13.046;2024-03-06T13:30:55;103.53;;;18.20;;
35114;SDS011;21292;52.416;13.046;2024-03-06T13:33:25;18.65;;;10.27;;
35114;SDS011;21292;52.416;13.046;2024-03-06T13:35:54;15.88;;;9.82;;
35114;SDS011;21292;52.416;13.046;2024-03-06T13:38:23;12.88;;;9.38;;
35114;SDS011;21292;52.416;13.046;2024-03-06T13:40:51;15.93;;;10.80;;
35114;SDS011;21292;52.416;13.046;2024-03-06T13:43:20;15.02;;;10.30;;
35114;SDS011;21292;52.416;13.046;2024-03-06T13:45:50;14.98;;;9.50;;
35114;SDS011;21292;52.416;13.046;2024-03-06T13:48:20;15.13;;;9.85;;
35114;SDS011;21292;52.416;13.046;2024-03-06T13:50:49;14.52;;;9.70;;
35114;SDS011;21292;52.416;13.046;2024-03-06T13:53:20;15.98;;;10.40;;
35114;SDS011;21292;52.416;13.046;2024-03-06T13:55:49;15.73;;;9.73;;
35114;SDS011;21292;52.416;13.046;2024-03-06T13:58:17;11.63;;;7.85;;
35114;SDS011;21292;52.416;13.046;2024-03-06T14:00:45;12.98;;;8.48;;
35114;SDS011;21292;52.416;13.046;2024-03-06T14:03:14;17.38;;;9.75;;
35114;SDS011;21292;52.416;13.046;2024-03-06T14:05:43;14.07;;;9.13;;
35114;SDS011;21292;52.416;13.046;2024-03-06T14:08:12;18.98;;;11.35;;
35114;SDS011;21292;52.416;13.046;2024-03-06T14:10:40;16.35;;;10.02;;
35114;SDS011;21292;52.416;13.046;2024-03-06T14:13:09;17.45;;;10.60;;
35114;SDS011;21292;52.416;13.046;2024-03-06T14:15:37;20.75;;;10.40;;
35114;SDS011;21292;52.416;13.046;2024-03-06T14:18:06;17.65;;;10.95;;
35114;SDS011;21292;52.416;13.046;2024-03-06T14:20:37;18.10;;;10.98;;
35114;SDS011;21292;52.416;13.046;2024-03-06T14:23:08;19.90;;;11.60;;
35114;SDS011;21292;52.416;13.046;2024-03-06T14:25:37;20.13;;;11.68;;
35114;SDS011;21292;52.416;13.046;2024-03-06T14:28:07;25.60;;;12.18;;
35114;SDS011;21292;52.416;13.046;2024-03-06T14:30:37;20.35;;;11.88;;
35114;SDS011;21292;52.416;13.046;2024-03-06T14:33:09;27.48;;;12.43;;
35114;SDS011;21292;52.416;13.046;2024-03-06T14:35:39;25.92;;;13.05;;
35114;SDS011;21292;52.416;13.046;2024-03-06T14:38:12;23.27;;;12.80;;
35114;SDS011;21292;52.416;13.046;2024-03-06T14:40:43;24.52;;;12.93;;
35114;SDS011;21292;52.416;13.046;2024-03-06T14:43:15;26.42;;;12.80;;
35114;SDS011;21292;52.416;13.046;2024-03-06T14:45:44;26.60;;;12.48;;
35114;SDS011;21292;52.416;13.046;2024-03-06T14:48:13;25.85;;;12.30;;
35114;SDS011;21292;52.416;13.046;2024-03-06T14:50:42;26.95;;;12.82;;
35114;SDS011;21292;52.416;13.046;2024-03-06T14:53:14;20.77;;;11.82;;